createdAt,value
2023-05-13T00:01:43.448Z,65.93
2023-05-13T00:04:10.271Z,65.59
2023-05-13T00:06:37.371Z,65.54
2023-05-13T00:09:04.482Z,67.10
2023-05-13T00:11:31.310Z,67.68
2023-05-13T00:13:58.167Z,66.58
2023-05-13T00:16:27.661Z,66.43
2023-05-13T00:18:55.979Z,66.43
2023-05-13T00:21:23.621Z,66.33
2023-05-13T00:23:50.549Z,66.10
2023-05-13T00:26:17.485Z,66.32
2023-05-13T00:28:44.348Z,66.60
2023-05-13T00:31:11.535Z,66.79
2023-05-13T00:33:38.557Z,66.41
2023-05-13T00:36:06.424Z,66.67
2023-05-13T00:38:33.453Z,66.39
2023-05-13T00:41:00.714Z,66.90
2023-05-13T00:43:27.609Z,66.17
2023-05-13T00:45:54.598Z,66.00
2023-05-13T00:48:23.097Z,66.31
2023-05-13T00:50:50.201Z,66.08
2023-05-13T00:53:17.800Z,66.49
2023-05-13T00:55:46.126Z,66.60
2023-05-13T00:58:14.000Z,67.10
2023-05-13T01:01:15.225Z,67.10
2023-05-13T01:04:04.385Z,66.91
2023-05-13T01:06:40.447Z,66.29
2023-05-13T01:09:26.196Z,66.10
2023-05-13T01:11:55.525Z,66.60
2023-05-13T01:14:34.014Z,67.08
2023-05-13T01:17:12.293Z,66.62
2023-05-13T01:19:44.813Z,66.96
2023-05-13T01:22:11.686Z,67.09
2023-05-13T01:24:38.669Z,67.24
2023-05-13T01:27:06.355Z,67.68
2023-05-13T01:29:33.503Z,67.61
2023-05-13T01:32:01.165Z,67.18
2023-05-13T01:34:28.545Z,66.73
2023-05-13T01:36:56.279Z,66.92
2023-05-13T01:39:24.474Z,67.08
2023-05-13T01:41:51.422Z,67.21
2023-05-13T01:44:18.286Z,67.21
2023-05-13T01:46:45.512Z,67.23
2023-05-13T01:49:12.590Z,67.61
2023-05-13T01:51:40.317Z,67.53
2023-05-13T01:54:07.234Z,65.56
2023-05-13T01:56:34.392Z,65.19
2023-05-13T01:59:01.269Z,65.13
2023-05-13T02:01:28.246Z,64.94
2023-05-13T02:04:00.016Z,66.68
2023-05-13T02:06:28.023Z,67.08
2023-05-13T02:08:54.966Z,67.50
2023-05-13T02:11:22.441Z,66.84
2023-05-13T02:13:49.384Z,66.86
2023-05-13T02:16:20.278Z,66.98
2023-05-13T02:18:47.112Z,66.89
2023-05-13T02:21:14.034Z,66.92
2023-05-13T02:23:40.931Z,66.76
2023-05-13T02:26:07.821Z,67.54
2023-05-13T02:28:34.636Z,68.25
2023-05-13T02:31:01.517Z,67.50
2023-05-13T02:33:28.331Z,67.48
2023-05-13T02:35:55.159Z,67.36
2023-05-13T02:38:22.033Z,67.17
2023-05-13T02:40:49.205Z,67.76
2023-05-13T02:43:16.068Z,67.37
2023-05-13T02:45:42.913Z,67.48
2023-05-13T02:48:11.029Z,67.62
2023-05-13T02:50:37.997Z,67.74
2023-05-13T02:53:04.851Z,66.99
2023-05-13T02:55:31.707Z,67.62
2023-05-13T02:57:58.552Z,67.98
2023-05-13T03:00:25.586Z,67.79
2023-05-13T03:02:52.533Z,67.37
2023-05-13T03:05:19.540Z,67.62
2023-05-13T03:07:46.526Z,67.14
2023-05-13T03:10:13.797Z,67.52
2023-05-13T03:12:40.748Z,67.81
2023-05-13T03:15:08.419Z,68.09
2023-05-13T03:17:35.287Z,68.38
2023-05-13T03:20:02.218Z,67.98
2023-05-13T03:22:29.196Z,67.90
2023-05-13T03:24:57.160Z,68.00
2023-05-13T03:27:24.016Z,68.07
2023-05-13T03:29:51.032Z,67.68
2023-05-13T03:32:17.903Z,68.12
2023-05-13T03:34:44.712Z,68.11
2023-05-13T03:37:11.734Z,68.65
2023-05-13T03:39:38.550Z,68.70
2023-05-13T03:42:05.710Z,68.86
2023-05-13T03:44:32.527Z,68.37
2023-05-13T03:46:59.311Z,68.68
2023-05-13T03:49:26.275Z,68.32
2023-05-13T03:51:53.083Z,68.83
2023-05-13T03:54:19.871Z,69.15
2023-05-13T03:56:46.804Z,68.67
2023-05-13T03:59:13.674Z,66.92
2023-05-13T04:01:40.745Z,66.52
2023-05-13T04:04:07.579Z,66.84
2023-05-13T04:06:34.498Z,66.80
2023-05-13T04:09:04.452Z,67.01
2023-05-13T04:11:32.323Z,67.25
2023-05-13T04:13:59.397Z,67.01
2023-05-13T04:16:26.267Z,67.04
2023-05-13T04:18:53.231Z,67.03
2023-05-13T04:21:20.077Z,67.62
2023-05-13T04:23:46.900Z,67.66
2023-05-13T04:26:13.711Z,67.53
2023-05-13T04:28:40.601Z,67.92
2023-05-13T04:31:07.452Z,68.06
2023-05-13T04:33:34.284Z,68.80
2023-05-13T04:36:01.353Z,68.04
2023-05-13T04:38:28.162Z,68.23
2023-05-13T04:40:55.020Z,69.95
2023-05-13T04:43:22.116Z,70.35
2023-05-13T04:45:49.255Z,69.24
2023-05-13T04:48:16.495Z,68.76
2023-05-13T04:50:47.108Z,68.25
2023-05-13T04:53:15.586Z,68.38
2023-05-13T04:55:42.603Z,68.77
2023-05-13T04:58:09.507Z,68.44
2023-05-13T05:00:36.311Z,68.35
2023-05-13T05:03:03.249Z,68.54
2023-05-13T05:05:30.155Z,68.41
2023-05-13T05:07:56.953Z,68.35
2023-05-13T05:10:23.912Z,68.23
2023-05-13T05:12:51.032Z,68.34
2023-05-13T05:15:17.857Z,68.44
2023-05-13T05:17:45.404Z,68.20
2023-05-13T05:20:13.392Z,68.41
2023-05-13T05:22:41.998Z,68.04
2023-05-13T05:25:10.645Z,69.59
2023-05-13T05:27:37.491Z,69.48
2023-05-13T05:30:05.299Z,70.01
2023-05-13T05:32:32.764Z,69.72
2023-05-13T05:35:02.050Z,69.99
2023-05-13T05:37:30.807Z,69.85
2023-05-13T05:39:57.660Z,69.63
2023-05-13T05:42:24.488Z,69.69
2023-05-13T05:44:51.337Z,70.35
2023-05-13T05:47:18.147Z,70.05
2023-05-13T05:49:45.006Z,70.12
2023-05-13T05:52:13.267Z,68.79
2023-05-13T05:54:40.140Z,68.92
2023-05-13T05:57:07.022Z,69.05
2023-05-13T05:59:33.909Z,69.84
2023-05-13T06:02:00.799Z,69.04
2023-05-13T06:04:27.799Z,68.71
2023-05-13T06:06:54.636Z,68.74
2023-05-13T06:09:21.567Z,68.73
2023-05-13T06:11:48.401Z,69.15
2023-05-13T06:14:16.688Z,68.41
2023-05-13T06:16:44.678Z,68.02
2023-05-13T06:19:11.596Z,68.54
2023-05-13T06:21:38.491Z,68.40
2023-05-13T06:24:05.652Z,68.40
2023-05-13T06:26:32.648Z,68.80
2023-05-13T06:28:59.539Z,68.90
2023-05-13T06:31:26.735Z,67.93
2023-05-13T06:33:53.663Z,67.80
2023-05-13T06:36:20.646Z,67.16
2023-05-13T06:38:47.664Z,67.07
2023-05-13T06:41:15.321Z,67.02
2023-05-13T06:43:42.145Z,66.79
2023-05-13T06:46:08.997Z,67.32
2023-05-13T06:48:35.855Z,66.38
2023-05-13T06:51:02.682Z,66.04
2023-05-13T06:53:29.531Z,66.79
2023-05-13T06:55:56.383Z,66.80
2023-05-13T06:58:23.223Z,67.30
2023-05-13T07:00:50.125Z,66.40
2023-05-13T07:03:17.742Z,66.36
2023-05-13T07:05:44.883Z,66.00
2023-05-13T07:08:17.689Z,66.02
2023-05-13T07:10:45.044Z,64.35
2023-05-13T07:13:11.962Z,65.31
2023-05-13T07:15:38.893Z,64.55
2023-05-13T07:18:05.882Z,65.52
2023-05-13T07:20:32.934Z,65.30
2023-05-13T07:22:59.761Z,64.40
2023-05-13T07:25:26.661Z,63.61
2023-05-13T07:27:53.526Z,63.44
2023-05-13T07:30:20.642Z,62.25
2023-05-13T07:32:47.936Z,62.08
2023-05-13T07:35:17.091Z,61.29
2023-05-13T07:37:46.951Z,61.97
2023-05-13T07:40:14.059Z,61.40
2023-05-13T07:42:41.308Z,62.15
2023-05-13T07:45:09.064Z,60.90
2023-05-13T07:47:35.880Z,60.99
2023-05-13T07:50:02.798Z,61.75
2023-05-13T07:52:29.678Z,61.14
2023-05-13T07:54:56.555Z,61.26
2023-05-13T07:57:23.483Z,63.21
2023-05-13T07:59:50.304Z,63.70
2023-05-13T08:02:17.254Z,62.59
2023-05-13T08:04:44.216Z,63.08
2023-05-13T08:07:11.758Z,62.00
2023-05-13T08:09:38.827Z,60.89
2023-05-13T08:12:06.394Z,61.33
2023-05-13T08:14:33.251Z,61.60
2023-05-13T08:17:00.051Z,61.14
2023-05-13T08:19:26.899Z,61.51
2023-05-13T08:21:53.776Z,60.69
2023-05-13T08:24:20.808Z,60.69
2023-05-13T08:26:47.712Z,61.12
2023-05-13T08:29:15.692Z,62.15
2023-05-13T08:31:42.621Z,60.63
2023-05-13T08:34:09.461Z,61.34
2023-05-13T08:36:36.493Z,61.78
2023-05-13T08:39:03.690Z,61.42
2023-05-13T08:41:31.846Z,61.88
2023-05-13T08:43:59.192Z,61.29
2023-05-13T08:46:28.908Z,62.09
2023-05-13T08:48:56.413Z,61.64
2023-05-13T08:51:23.807Z,60.28
2023-05-13T08:53:53.120Z,60.64
2023-05-13T08:56:20.114Z,59.82
2023-05-13T08:58:46.966Z,59.45
2023-05-13T09:01:13.887Z,60.10
2023-05-13T09:04:00.036Z,59.96
2023-05-13T09:06:26.942Z,59.92
2023-05-13T09:08:54.991Z,59.56
2023-05-13T09:11:22.966Z,60.13
2023-05-13T09:14:02.741Z,60.09
2023-05-13T09:16:30.408Z,60.15
2023-05-13T09:19:04.205Z,60.02
2023-05-13T09:21:35.484Z,60.50
2023-05-13T09:24:18.989Z,59.68
2023-05-13T09:26:46.393Z,59.13
2023-05-13T09:29:25.396Z,58.65
2023-05-13T09:31:55.135Z,58.41
2023-05-13T09:34:49.125Z,58.57
2023-05-13T09:37:18.742Z,58.24
2023-05-13T09:39:46.167Z,57.86
2023-05-13T09:42:18.458Z,57.28
2023-05-13T09:44:49.750Z,57.87
2023-05-13T09:47:17.812Z,58.33
2023-05-13T09:49:55.038Z,59.13
2023-05-13T09:52:22.500Z,57.38
2023-05-13T09:54:49.347Z,57.96
2023-05-13T09:57:16.259Z,57.86
2023-05-13T09:59:43.118Z,57.77
2023-05-13T10:02:11.597Z,57.35
2023-05-13T10:04:38.852Z,57.71
2023-05-13T10:07:06.355Z,57.23
2023-05-13T10:09:36.936Z,57.26
2023-05-13T10:12:07.848Z,56.89
2023-05-13T10:14:37.276Z,56.42
2023-05-13T10:17:05.449Z,57.05
2023-05-13T10:19:32.942Z,56.99
2023-05-13T10:22:00.409Z,56.34
2023-05-13T10:24:28.917Z,55.39
2023-05-13T10:26:58.045Z,55.68
2023-05-13T10:29:26.557Z,55.32
2023-05-13T10:31:54.545Z,55.82
2023-05-13T10:34:22.988Z,55.78
2023-05-13T10:37:27.515Z,56.66
2023-05-13T10:40:22.222Z,56.92
2023-05-13T10:43:08.761Z,56.56
2023-05-13T10:45:35.728Z,57.19
2023-05-13T10:48:11.919Z,56.43
2023-05-13T10:50:39.247Z,56.69
2023-05-13T10:53:19.661Z,57.46
2023-05-13T10:55:46.624Z,57.12
2023-05-13T10:58:14.994Z,57.37
2023-05-13T11:00:45.822Z,57.05
2023-05-13T11:03:18.599Z,55.13
2023-05-13T11:05:59.309Z,54.69
2023-05-13T11:08:44.319Z,55.65
2023-05-13T11:11:20.818Z,55.43
2023-05-13T11:13:51.182Z,55.13
2023-05-13T11:16:18.693Z,54.68
2023-05-13T11:18:45.807Z,54.23
2023-05-13T11:21:13.324Z,52.53
2023-05-13T11:24:06.432Z,52.54
2023-05-13T11:26:53.436Z,51.78
2023-05-13T11:29:36.399Z,51.35
2023-05-13T11:32:05.818Z,55.20
2023-05-13T11:34:34.401Z,55.96
2023-05-13T11:37:04.152Z,54.26
2023-05-13T11:39:33.052Z,53.29
2023-05-13T11:42:03.903Z,53.47
2023-05-13T11:44:31.146Z,53.01
2023-05-13T11:47:06.053Z,51.53
2023-05-13T11:49:44.553Z,52.49
2023-05-13T11:52:17.157Z,52.80
2023-05-13T11:54:56.243Z,53.23
2023-05-13T11:57:28.343Z,49.56
2023-05-13T11:59:57.964Z,49.02
2023-05-13T12:02:33.515Z,48.47
2023-05-13T12:05:04.262Z,48.48
2023-05-13T12:07:32.018Z,49.21
2023-05-13T12:10:01.533Z,50.51
2023-05-13T12:12:30.290Z,50.83
2023-05-13T12:15:03.791Z,51.27
2023-05-13T12:17:31.899Z,51.73
2023-05-13T12:20:19.424Z,51.56
2023-05-13T12:22:46.133Z,53.39
2023-05-13T12:25:31.389Z,52.87
2023-05-13T12:27:59.809Z,52.69
2023-05-13T12:30:33.902Z,53.39
2023-05-13T12:33:00.856Z,51.03
2023-05-13T12:35:27.764Z,52.56
2023-05-13T12:38:02.328Z,53.40
2023-05-13T12:40:29.282Z,50.96
2023-05-13T12:43:00.718Z,51.53
2023-05-13T12:45:33.511Z,50.52
2023-05-13T12:48:01.058Z,52.02
2023-05-13T12:50:28.009Z,51.12
2023-05-13T12:52:54.875Z,52.20
2023-05-13T12:55:22.093Z,50.31
2023-05-13T12:58:03.121Z,49.75
2023-05-13T13:00:30.907Z,50.27
2023-05-13T13:02:58.198Z,51.79
2023-05-13T13:05:26.986Z,51.03
2023-05-13T13:07:53.846Z,51.89
2023-05-13T13:10:20.788Z,51.68
2023-05-13T13:12:47.941Z,53.23
2023-05-13T13:15:14.750Z,51.43
2023-05-13T13:17:41.649Z,51.35
2023-05-13T13:20:08.861Z,51.44
2023-05-13T13:22:37.186Z,51.70
2023-05-13T13:25:07.890Z,51.89
2023-05-13T13:27:35.158Z,52.38
2023-05-13T13:30:02.578Z,53.09
2023-05-13T13:32:29.503Z,53.08
2023-05-13T13:34:58.129Z,51.12
2023-05-13T13:37:25.122Z,48.63
2023-05-13T13:39:51.978Z,49.38
2023-05-13T13:42:18.792Z,48.64
2023-05-13T13:44:45.623Z,47.29
2023-05-13T13:47:12.483Z,48.39
2023-05-13T13:49:39.321Z,49.10
2023-05-13T13:52:06.387Z,48.73
2023-05-13T13:54:33.228Z,49.44
2023-05-13T13:57:00.052Z,50.04
2023-05-13T13:59:26.913Z,49.69
2023-05-13T14:01:54.075Z,50.42
2023-05-13T14:04:23.591Z,50.82
2023-05-13T14:06:51.229Z,51.15
2023-05-13T14:09:18.616Z,51.20
2023-05-13T14:11:45.661Z,51.78
2023-05-13T14:14:12.776Z,51.88
2023-05-13T14:16:40.128Z,51.46
2023-05-13T14:19:06.968Z,51.32
2023-05-13T14:21:33.882Z,50.87
2023-05-13T14:24:00.689Z,51.46
2023-05-13T14:26:27.866Z,49.97
2023-05-13T14:28:54.815Z,49.67
2023-05-13T14:31:21.690Z,50.65
2023-05-13T14:33:48.525Z,49.28
2023-05-13T14:36:16.309Z,48.42
2023-05-13T14:38:44.322Z,47.40
2023-05-13T14:41:12.594Z,46.74
2023-05-13T14:43:39.434Z,49.09
2023-05-13T14:46:06.309Z,47.95
2023-05-13T14:48:33.126Z,48.64
2023-05-13T14:50:59.967Z,49.50
2023-05-13T14:53:26.805Z,50.31
2023-05-13T14:55:53.863Z,50.63
2023-05-13T14:58:20.769Z,50.06
2023-05-13T15:00:49.137Z,51.74
2023-05-13T15:03:16.652Z,52.15
2023-05-13T15:05:44.296Z,52.98
2023-05-13T15:08:11.448Z,53.18
2023-05-13T15:10:38.244Z,52.94
2023-05-13T15:13:05.030Z,53.31
2023-05-13T15:15:33.565Z,53.24
2023-05-13T15:18:00.564Z,53.49
2023-05-13T15:20:28.544Z,54.09
2023-05-13T15:22:57.681Z,52.99
2023-05-13T15:25:24.504Z,52.99
2023-05-13T15:27:51.336Z,52.49
2023-05-13T15:30:18.294Z,52.23
2023-05-13T15:32:45.194Z,51.66
2023-05-13T15:35:12.119Z,52.09
2023-05-13T15:37:42.575Z,51.99
2023-05-13T15:40:10.045Z,53.00
2023-05-13T15:42:36.884Z,53.64
2023-05-13T15:45:04.250Z,53.17
2023-05-13T15:47:31.263Z,53.30
2023-05-13T15:49:58.417Z,54.38
2023-05-13T15:52:25.271Z,53.50
2023-05-13T15:54:52.157Z,53.39
2023-05-13T15:57:19.155Z,53.19
2023-05-13T15:59:46.041Z,54.31
2023-05-13T16:02:12.906Z,53.82
2023-05-13T16:04:39.891Z,53.98
2023-05-13T16:07:10.932Z,53.63
2023-05-13T16:09:41.013Z,53.86
2023-05-13T16:12:08.296Z,53.50
2023-05-13T16:14:35.138Z,53.38
2023-05-13T16:17:02.088Z,53.29
2023-05-13T16:19:28.894Z,53.06
2023-05-13T16:21:56.009Z,53.84
2023-05-13T16:24:22.798Z,53.83
2023-05-13T16:26:49.769Z,54.01
2023-05-13T16:29:17.386Z,54.21
2023-05-13T16:31:44.218Z,54.32
2023-05-13T16:34:11.171Z,54.30
2023-05-13T16:36:38.015Z,54.57
2023-05-13T16:39:05.555Z,54.50
2023-05-13T16:41:33.210Z,55.00
2023-05-13T16:44:00.087Z,54.85
2023-05-13T16:46:27.014Z,55.27
2023-05-13T16:48:53.915Z,55.83
2023-05-13T16:51:20.787Z,56.51
2023-05-13T16:53:47.621Z,57.34
2023-05-13T16:56:14.410Z,57.69
2023-05-13T16:58:41.441Z,58.17
2023-05-13T17:01:08.402Z,58.32
2023-05-13T17:03:35.289Z,59.47
2023-05-13T17:06:03.076Z,59.03
2023-05-13T17:08:30.014Z,58.98
2023-05-13T17:10:56.878Z,59.43
2023-05-13T17:13:23.776Z,60.08
2023-05-13T17:15:51.376Z,59.30
2023-05-13T17:18:18.289Z,59.17
2023-05-13T17:20:45.880Z,59.16
2023-05-13T17:23:12.762Z,59.78
2023-05-13T17:25:39.642Z,58.70
2023-05-13T17:28:09.256Z,58.93
2023-05-13T17:30:36.090Z,58.80
2023-05-13T17:33:02.952Z,58.86
2023-05-13T17:35:29.913Z,59.17
2023-05-13T17:37:56.719Z,59.26
2023-05-13T17:40:23.769Z,60.05
2023-05-13T17:42:52.746Z,60.30
2023-05-13T17:45:20.059Z,60.91
2023-05-13T17:47:46.971Z,60.69
2023-05-13T17:50:14.890Z,61.10
2023-05-13T17:52:41.805Z,60.98
2023-05-13T17:55:09.149Z,60.49
2023-05-13T17:57:35.973Z,60.55
2023-05-13T18:00:06.951Z,60.04
2023-05-13T18:02:34.088Z,60.12
2023-05-13T18:05:01.044Z,60.55
2023-05-13T18:07:28.239Z,60.70
2023-05-13T18:09:55.163Z,60.86
2023-05-13T18:12:22.011Z,61.10
2023-05-13T18:14:48.901Z,61.09
2023-05-13T18:17:16.016Z,61.77
2023-05-13T18:19:42.838Z,62.02
2023-05-13T18:22:10.724Z,62.02
2023-05-13T18:24:40.742Z,62.00
2023-05-13T18:27:07.918Z,62.28
2023-05-13T18:29:35.855Z,62.23
2023-05-13T18:32:04.758Z,62.54
2023-05-13T18:34:33.106Z,62.94
2023-05-13T18:37:00.203Z,63.15
2023-05-13T18:39:27.043Z,63.55
2023-05-13T18:41:53.908Z,63.58
2023-05-13T18:44:20.741Z,63.84
2023-05-13T18:46:47.591Z,63.98
2023-05-13T18:49:14.421Z,63.71
2023-05-13T18:51:41.410Z,63.71
2023-05-13T18:54:08.200Z,62.04
2023-05-13T18:56:35.089Z,60.46
2023-05-13T18:59:01.934Z,60.50
2023-05-13T19:01:28.932Z,60.17
2023-05-13T19:03:56.793Z,59.42
2023-05-13T19:06:23.747Z,59.72
2023-05-13T19:08:50.571Z,59.67
2023-05-13T19:11:17.454Z,58.93
2023-05-13T19:13:47.562Z,60.58
2023-05-13T19:16:15.537Z,62.41
2023-05-13T19:18:42.544Z,64.65
2023-05-13T19:21:09.380Z,66.38
2023-05-13T19:23:37.888Z,68.44
2023-05-13T19:26:04.776Z,67.91
2023-05-13T19:28:32.139Z,68.70
2023-05-13T19:30:58.933Z,69.07
2023-05-13T19:33:26.157Z,69.80
2023-05-13T19:35:53.025Z,70.01
2023-05-13T19:38:20.714Z,70.14
2023-05-13T19:40:47.974Z,70.18
2023-05-13T19:43:14.887Z,70.19
2023-05-13T19:45:41.922Z,70.44
2023-05-13T19:48:08.872Z,70.75
2023-05-13T19:50:35.830Z,70.79
2023-05-13T19:53:02.650Z,71.12
2023-05-13T19:55:29.696Z,71.48
2023-05-13T19:57:56.771Z,71.94
2023-05-13T20:00:23.998Z,72.11
2023-05-13T20:02:51.509Z,72.21
2023-05-13T20:05:18.594Z,72.34
2023-05-13T20:07:45.616Z,72.37
2023-05-13T20:10:12.538Z,72.69
2023-05-13T20:12:39.376Z,72.77
2023-05-13T20:15:06.896Z,72.66
2023-05-13T20:17:33.774Z,73.26
2023-05-13T20:20:01.251Z,72.79
2023-05-13T20:22:28.185Z,73.32
2023-05-13T20:24:55.138Z,73.23
2023-05-13T20:27:21.976Z,73.15
2023-05-13T20:29:49.296Z,73.36
2023-05-13T20:32:24.442Z,73.55
2023-05-13T20:34:52.487Z,73.15
2023-05-13T20:37:21.795Z,73.54
2023-05-13T20:39:50.426Z,73.61
2023-05-13T20:42:17.327Z,73.56
2023-05-13T20:44:46.203Z,73.81
2023-05-13T20:47:13.837Z,73.31
2023-05-13T20:49:43.858Z,73.58
2023-05-13T20:52:11.303Z,73.96
2023-05-13T20:54:38.384Z,74.27
2023-05-13T20:57:05.752Z,74.05
2023-05-13T20:59:32.629Z,74.34
2023-05-13T21:01:59.696Z,74.47
2023-05-13T21:04:26.718Z,74.91
2023-05-13T21:06:53.780Z,74.94
2023-05-13T21:09:20.693Z,75.23
2023-05-13T21:11:47.584Z,74.96
2023-05-13T21:14:14.490Z,75.34
2023-05-13T21:16:41.463Z,74.91
2023-05-13T21:19:08.482Z,75.19
2023-05-13T21:21:35.424Z,74.87
2023-05-13T21:24:02.395Z,74.66
2023-05-13T21:26:29.361Z,75.00
2023-05-13T21:28:56.213Z,75.07
2023-05-13T21:31:23.738Z,75.08
2023-05-13T21:33:50.653Z,75.33
2023-05-13T21:36:17.519Z,75.48
2023-05-13T21:38:44.374Z,74.76
2023-05-13T21:41:11.243Z,75.33
2023-05-13T21:43:38.144Z,75.35
2023-05-13T21:46:06.537Z,74.82
2023-05-13T21:48:33.502Z,75.34
2023-05-13T21:51:00.471Z,75.30
2023-05-13T21:53:27.874Z,74.62
2023-05-13T21:55:58.931Z,74.99
2023-05-13T21:58:26.037Z,74.96
2023-05-13T22:00:53.624Z,74.60
2023-05-13T22:03:20.672Z,74.58
2023-05-13T22:05:47.566Z,74.08
2023-05-13T22:08:14.397Z,74.27
2023-05-13T22:10:41.208Z,74.59
2023-05-13T22:13:08.057Z,74.36
2023-05-13T22:15:34.906Z,74.13
2023-05-13T22:18:01.829Z,74.74
2023-05-13T22:20:28.748Z,74.17
2023-05-13T22:22:55.585Z,73.87
2023-05-13T22:25:22.583Z,73.10
2023-05-13T22:27:51.228Z,73.27
2023-05-13T22:30:18.615Z,73.34
2023-05-13T22:32:45.585Z,73.79
2023-05-13T22:35:12.465Z,73.72
2023-05-13T22:37:39.391Z,73.44
2023-05-13T22:40:07.328Z,73.24
2023-05-13T22:42:34.152Z,72.87
2023-05-13T22:45:00.974Z,72.77
2023-05-13T22:47:27.941Z,73.13
2023-05-13T22:49:54.894Z,73.46
2023-05-13T22:52:21.680Z,72.93
2023-05-13T22:54:48.505Z,72.77
2023-05-13T22:57:15.339Z,72.50
2023-05-13T22:59:42.177Z,72.88
2023-05-13T23:02:09.058Z,72.99
2023-05-13T23:04:36.102Z,73.07
2023-05-13T23:07:03.037Z,73.16
2023-05-13T23:09:29.872Z,73.28
2023-05-13T23:11:57.889Z,72.84
2023-05-13T23:14:27.561Z,73.28
2023-05-13T23:16:54.411Z,72.77
2023-05-13T23:19:21.292Z,73.00
2023-05-13T23:21:48.090Z,73.08
2023-05-13T23:24:14.878Z,73.10
2023-05-13T23:26:43.864Z,73.29
2023-05-13T23:29:11.509Z,73.02
2023-05-13T23:31:40.441Z,72.62
2023-05-13T23:34:08.376Z,72.68
2023-05-13T23:36:35.431Z,72.61
2023-05-13T23:39:02.245Z,72.61
2023-05-13T23:41:29.155Z,72.95
2023-05-13T23:43:56.009Z,72.70
2023-05-13T23:46:23.038Z,72.29
2023-05-13T23:48:49.885Z,72.60
2023-05-13T23:51:16.721Z,71.89
2023-05-13T23:53:43.577Z,72.13
2023-05-13T23:56:10.525Z,72.15
2023-05-13T23:58:37.437Z,71.86
